Noordam — PHET — position and weather

sailwx.info

Track history (hours):
 
Tides and Currents Weather Stations Pressure Air Temp Water Temp Dewpoint Dewpoint Depression Visibility Wind Speed Wind Dir Waves Ship Positions

Noordam (Netherlands)

Ship's website: http://www.hollandamerica.com/cruiseships/Noordam

Last reported at 2020-Mar-24 19:58 UTC. Time now 2020-Apr-02 00:12 UTC.
Position S 36°41' E 174°54'.
Warning: this ship's position is 8 days out of date.

Type: Passenger vessel. MMSI: 246028000.

Date/timePositionNaut miles runAvg speedWind from/ knotsBaromVisibWave heightAir tempDewpointWater temp
2020-Mar-24 19:58S 36°41' E 174°54'3 3.0
2020-Mar-24 19:01S 36°44' E 174°53'0 0.0
2020-Mar-24 17:25S 36°44' E 174°53'0 0.1
2020-Mar-24 16:43S 36°44' E 174°53'0 0.0
2020-Mar-24 15:19S 36°44' E 174°53'0 0.0
2020-Mar-24 13:55S 36°44' E 174°53'0 0.1
2020-Mar-24 13:13S 36°44' E 174°53'0 0.0
2020-Mar-24 12:55S 36°44' E 174°53'0 0.0
2020-Mar-24 09:49S 36°44' E 174°53'0 0.0
2020-Mar-24 08:19S 36°44' E 174°53'0 0.0
2020-Mar-24 07:55S 36°44' E 174°53'0 0.0
2020-Mar-24 07:25S 36°44' E 174°53'0 0.0
2020-Mar-24 04:01S 36°44' E 174°53'0 0.0
2020-Mar-24 01:19S 36°44' E 174°53'0 0.0
2020-Mar-24 00:25S 36°44' E 174°53'0 0.0
2020-Mar-23 20:49S 36°44' E 174°53'0 0.0
2020-Mar-23 13:25S 36°44' E 174°53'0 0.0
2020-Mar-23 12:55S 36°44' E 174°53'0 0.0
2020-Mar-23 11:25S 36°44' E 174°53'0 0.0
2020-Mar-23 10:55S 36°44' E 174°53'0 0.0
2020-Mar-23 09:13S 36°44' E 174°53'0 0.0
2020-Mar-23 07:49S 36°44' E 174°53'0 0.0
2020-Mar-23 05:13S 36°44' E 174°53'0 0.0
2020-Mar-22 22:13S 36°44' E 174°53'0 0.0
2020-Mar-22 19:01S 36°44' E 174°53'0 0.0
2020-Mar-22 18:01S 36°44' E 174°53'0 0.1
2020-Mar-22 17:19S 36°44' E 174°53'0 0.0
2020-Mar-22 15:55S 36°44' E 174°53'4 1.0
2020-Mar-22 12:00S 36°42' E 174°48'454.2 330 / 12
2020-Mar-22 11:55S 36°44' E 174°53'4 4.4
2020-Mar-22 11:00S 36°42' E 174°48'4 1.5 320 / 131014.5 5.4 20.0 21.0
2020-Mar-22 08:19S 36°44' E 174°53'0 0.0
2020-Mar-22 05:37S 36°44' E 174°53'0 0.1
2020-Mar-22 04:31S 36°44' E 174°52'0 0.0
2020-Mar-22 02:13S 36°44' E 174°53'0 0.0
2020-Mar-21 23:13S 36°44' E 174°53'0 0.0
2020-Mar-21 17:55S 36°44' E 174°53'0 0.1
2020-Mar-21 17:13S 36°44' E 174°53'0 0.1
2020-Mar-21 16:25S 36°44' E 174°53'0 0.0
2020-Mar-21 13:25S 36°44' E 174°53'0 0.0
2020-Mar-21 11:07S 36°44' E 174°53'0 0.0
2020-Mar-21 09:19S 36°44' E 174°53'0 0.0
2020-Mar-21 02:49S 36°44' E 174°53'0 0.0
2020-Mar-21 01:43S 36°44' E 174°53'0 0.0
2020-Mar-21 00:43S 36°44' E 174°53'0 0.0
2020-Mar-20 16:55S 36°44' E 174°53'0 0.0
2020-Mar-20 15:37S 36°44' E 174°53'0 0.0
2020-Mar-20 14:25S 36°44' E 174°53'0 0.1
2020-Mar-20 13:49S 36°44' E 174°53'0 0.1
2020-Mar-20 12:55S 36°44' E 174°53'0 0.0
2020-Mar-20 10:49S 36°44' E 174°53'0 0.0
2020-Mar-20 08:55S 36°44' E 174°53'0 0.0
2020-Mar-20 08:25S 36°44' E 174°53'0 0.0
2020-Mar-20 05:37S 36°44' E 174°53'0 0.1
2020-Mar-20 05:07S 36°44' E 174°53'0 0.0
2020-Mar-20 02:49S 36°44' E 174°53'0 0.0
2020-Mar-20 02:25S 36°44' E 174°53'0 0.0
2020-Mar-19 18:19S 36°44' E 174°53'0 0.0
2020-Mar-19 16:25S 36°44' E 174°53'0 0.0
2020-Mar-19 14:19S 36°44' E 174°53'0 0.0
2020-Mar-19 13:37S 36°44' E 174°53'0 0.0
2020-Mar-19 13:25S 36°44' E 174°53'0 0.0
2020-Mar-19 09:55S 36°44' E 174°53'0 0.0
2020-Mar-19 09:19S 36°44' E 174°53'0 0.0
2020-Mar-19 08:19S 36°44' E 174°53'0 0.0
2020-Mar-19 06:01S 36°44' E 174°53'0 0.1
2020-Mar-19 04:43S 36°44' E 174°53'0 0.2
2020-Mar-19 04:13S 36°44' E 174°52'6 6.5
2020-Mar-19 03:15S 36°50' E 174°50'6 0.9
2020-Mar-18 20:00S 36°48' E 174°42'31 5.1 250 / 51021.5 5.4 15.0
2020-Mar-18 14:00S 36°24' E 175°06'1111.4 270 / 111021.810.8 17.0 20.0
2020-Mar-18 13:00S 36°18' E 175°18'1111.4 290 / 111021.310.8 17.0
2020-Mar-18 12:00S 36°24' E 175°30'27 9.0 280 / 141021.710.8 17.4 20.9
2020-Mar-18 09:00S 36°36' E 176°00'1515.4 330 / 101021.510.8 17.0
2020-Mar-18 08:00S 36°48' E 176°12'1312.9 360 / 151020.710.8 17.4
2020-Mar-18 07:00S 37°00' E 176°06'2412.2 360 / 101020.1 5.4 17.0
2020-Mar-18 05:00S 37°24' E 176°12'1510.2 010 / 161019.010.8 18.1 20.8
2020-Mar-18 03:30S 37°39' E 176°11'0 0.0
2020-Mar-18 02:30S 37°39' E 176°11'0 0.0
2020-Mar-18 02:00S 37°39' E 176°11'5438.0
2020-Mar-18 02:00S 37°36' E 176°06'5 5.0 310 / 61019.110.8 23.0 21.0
2020-Mar-18 01:00S 37°39' E 176°11'5448.9
2020-Mar-18 01:00S 37°36' E 176°06'0 0.0 230 / 41019.410.8 20.0
2020-Mar-18 00:00S 37°36' E 176°06'5 1.4 200 / 51019.910.8 19.0
2020-Mar-17 20:30S 37°39' E 176°11'5 3.3
2020-Mar-17 19:00S 37°36' E 176°06'5 5.0 250 / 101019.8 5.4 11.3
2020-Mar-17 18:00S 37°39' E 176°11'5 4.9
2020-Mar-17 17:00S 37°36' E 176°06'510.2 250 / 81017.910.8 13.0 20.0
2020-Mar-17 16:30S 37°39' E 176°11'0 0.0
2020-Mar-17 13:00S 37°39' E 176°11'0 0.0
2020-Mar-17 10:30S 37°39' E 176°11'0 0.0
2020-Mar-17 09:30S 37°39' E 176°11'5 3.3
2020-Mar-17 08:00S 37°36' E 176°06'0 0.0 200 / 131014.2 15.0
2020-Mar-17 07:00S 37°36' E 176°06'510.1 170 / 251013.4 5.4 16.0
2020-Mar-17 06:30S 37°39' E 176°11'0 0.1
2020-Mar-17 06:00S 37°39' E 176°11'0 0.0
2020-Mar-17 03:30S 37°39' E 176°11'0 0.0
2020-Mar-17 01:00S 37°39' E 176°11'5623.4
2020-Mar-17 01:00S 37°36' E 176°06'5 2.5 160 / 151008.7 5.4 19.0
2020-Mar-16 23:00S 37°39' E 176°11'0 0.0
2020-Mar-16 21:30S 37°39' E 176°11'5 3.3
2020-Mar-16 20:00S 37°36' E 176°06'510.2 120 / 101007.5 5.4 17.3
2020-Mar-16 19:30S 37°39' E 176°11'5 9.9
2020-Mar-16 19:00S 37°36' E 176°06'0 0.0 140 / 151007.3 5.4 17.5
2020-Mar-16 18:00S 37°36' E 176°06'510.1 170 / 171007.6 5.4 17.8
2020-Mar-16 17:30S 37°39' E 176°11'5 3.3
2020-Mar-16 16:00S 37°36' E 176°06'5 5.0 130 / 201006.9 5.4 18.7
2020-Mar-16 15:00S 37°39' E 176°11'0 0.0
2020-Mar-16 14:30S 37°39' E 176°11'0 0.0
2020-Mar-16 12:00S 37°39' E 176°11'5 2.5
2020-Mar-16 10:00S 37°36' E 176°06'0 0.0 130 / 121007.2 5.4 19.0
2020-Mar-16 09:00S 37°36' E 176°06'5 2.5 140 / 61007.6 5.4 19.0
2020-Mar-16 07:00S 37°39' E 176°11'5717.8
2020-Mar-16 07:00S 37°36' E 176°06'510.1 250 / 51007.9 5.4 22.0
2020-Mar-16 06:30S 37°39' E 176°11'0 0.1
2020-Mar-16 06:00S 37°39' E 176°11'0 0.1
2020-Mar-16 05:30S 37°39' E 176°11'0 0.0
2020-Mar-16 03:30S 37°39' E 176°11'5 3.3
2020-Mar-16 02:00S 37°36' E 176°06'0 0.0 350 / 81009.4 5.4 22.0
2020-Mar-16 01:00S 37°36' E 176°06'0 0.0 350 / 61009.9 21.0
2020-Mar-16 00:00S 37°36' E 176°06'5 3.3 010 / 51011.0 5.4 22.0
2020-Mar-15 22:30S 37°39' E 176°11'0 0.1
2020-Mar-15 22:00S 37°39' E 176°11'5645.6
2020-Mar-15 22:00S 37°36' E 176°06'510.2 200 / 21012.210.8 16.0 20.0
2020-Mar-15 21:30S 37°39' E 176°11'0 0.1
2020-Mar-15 21:00S 37°39' E 176°11'0 0.0
2020-Mar-15 20:00S 37°39' E 176°11'0 0.0
2020-Mar-15 14:00S 37°39' E 176°11'0 0.0
2020-Mar-15 11:00S 37°39' E 176°11'0 0.0
2020-Mar-15 10:00S 37°39' E 176°11'0 0.0
2020-Mar-15 09:00S 37°39' E 176°11'5690.7
2020-Mar-15 09:00S 37°36' E 176°06'0 0.0 330 / 31014.3 5.4 19.0
2020-Mar-15 08:00S 37°36' E 176°06'0 0.0 300 / 51014.0 5.4 19.0
2020-Mar-15 07:00S 37°36' E 176°06'5 1.4 300 / 61013.410.8 20.0
2020-Mar-15 03:30S 37°39' E 176°11'5 9.8
2020-Mar-15 03:00S 37°36' E 176°06'510.1 020 / 81013.310.8 24.0 21.0
2020-Mar-15 02:30S 37°39' E 176°11'0 0.0
2020-Mar-15 01:00S 37°39' E 176°11'5997.6
2020-Mar-15 01:00S 37°36' E 176°06'0 0.0 030 / 111014.110.8 23.5
2020-Mar-15 00:00S 37°36' E 176°06'5 3.3 340 / 71014.410.8 23.0
2020-Mar-14 22:30S 37°39' E 176°11'0 0.0
2020-Mar-14 21:30S 37°39' E 176°11'0 0.0
2020-Mar-14 21:00S 37°39' E 176°11'0 0.0
2020-Mar-14 20:00S 37°39' E 176°11'  
Track history (hours):
 
Tides and Currents Weather Stations Pressure Air Temp Water Temp Dewpoint Dewpoint Depression Visibility Wind Speed Wind Dir Waves Ship Positions

Noordam (Netherlands)

Ship's website: http://www.hollandamerica.com/cruiseships/Noordam

Last reported at 2020-Mar-24 19:58 UTC. Time now 2020-Apr-02 00:12 UTC.
Position S 36°41' E 174°54'.
Warning: this ship's position is 8 days out of date.

Type: Passenger vessel. MMSI: 246028000.

Date/timePositionNaut miles runAvg speedWind from/ knotsBaromVisibWave heightAir tempDewpointWater temp
2020-Mar-24 19:58S 36°41' E 174°54'3 3.0
2020-Mar-24 19:01S 36°44' E 174°53'0 0.0
2020-Mar-24 17:25S 36°44' E 174°53'0 0.1
2020-Mar-24 16:43S 36°44' E 174°53'0 0.0
2020-Mar-24 15:19S 36°44' E 174°53'0 0.0
2020-Mar-24 13:55S 36°44' E 174°53'0 0.1
2020-Mar-24 13:13S 36°44' E 174°53'0 0.0
2020-Mar-24 12:55S 36°44' E 174°53'0 0.0
2020-Mar-24 09:49S 36°44' E 174°53'0 0.0
2020-Mar-24 08:19S 36°44' E 174°53'0 0.0
2020-Mar-24 07:55S 36°44' E 174°53'0 0.0
2020-Mar-24 07:25S 36°44' E 174°53'0 0.0
2020-Mar-24 04:01S 36°44' E 174°53'0 0.0
2020-Mar-24 01:19S 36°44' E 174°53'0 0.0
2020-Mar-24 00:25S 36°44' E 174°53'0 0.0
2020-Mar-23 20:49S 36°44' E 174°53'0 0.0
2020-Mar-23 13:25S 36°44' E 174°53'0 0.0
2020-Mar-23 12:55S 36°44' E 174°53'0 0.0
2020-Mar-23 11:25S 36°44' E 174°53'0 0.0
2020-Mar-23 10:55S 36°44' E 174°53'0 0.0
2020-Mar-23 09:13S 36°44' E 174°53'0 0.0
2020-Mar-23 07:49S 36°44' E 174°53'0 0.0
2020-Mar-23 05:13S 36°44' E 174°53'0 0.0
2020-Mar-22 22:13S 36°44' E 174°53'0 0.0
2020-Mar-22 19:01S 36°44' E 174°53'0 0.0
2020-Mar-22 18:01S 36°44' E 174°53'0 0.1
2020-Mar-22 17:19S 36°44' E 174°53'0 0.0
2020-Mar-22 15:55S 36°44' E 174°53'4 1.0
2020-Mar-22 12:00S 36°42' E 174°48'454.2 330 / 12
2020-Mar-22 11:55S 36°44' E 174°53'4 4.4
2020-Mar-22 11:00S 36°42' E 174°48'4 1.5 320 / 131014.5 5.4 20.0 21.0
2020-Mar-22 08:19S 36°44' E 174°53'0 0.0
2020-Mar-22 05:37S 36°44' E 174°53'0 0.1
2020-Mar-22 04:31S 36°44' E 174°52'0 0.0
2020-Mar-22 02:13S 36°44' E 174°53'0 0.0
2020-Mar-21 23:13S 36°44' E 174°53'0 0.0
2020-Mar-21 17:55S 36°44' E 174°53'0 0.1
2020-Mar-21 17:13S 36°44' E 174°53'0 0.1
2020-Mar-21 16:25S 36°44' E 174°53'0 0.0
2020-Mar-21 13:25S 36°44' E 174°53'0 0.0
2020-Mar-21 11:07S 36°44' E 174°53'0 0.0
2020-Mar-21 09:19S 36°44' E 174°53'0 0.0
2020-Mar-21 02:49S 36°44' E 174°53'0 0.0
2020-Mar-21 01:43S 36°44' E 174°53'0 0.0
2020-Mar-21 00:43S 36°44' E 174°53'0 0.0
2020-Mar-20 16:55S 36°44' E 174°53'0 0.0
2020-Mar-20 15:37S 36°44' E 174°53'0 0.0
2020-Mar-20 14:25S 36°44' E 174°53'0 0.1
2020-Mar-20 13:49S 36°44' E 174°53'0 0.1
2020-Mar-20 12:55S 36°44' E 174°53'0 0.0
2020-Mar-20 10:49S 36°44' E 174°53'0 0.0
2020-Mar-20 08:55S 36°44' E 174°53'0 0.0
2020-Mar-20 08:25S 36°44' E 174°53'0 0.0
2020-Mar-20 05:37S 36°44' E 174°53'0 0.1
2020-Mar-20 05:07S 36°44' E 174°53'0 0.0
2020-Mar-20 02:49S 36°44' E 174°53'0 0.0
2020-Mar-20 02:25S 36°44' E 174°53'0 0.0
2020-Mar-19 18:19S 36°44' E 174°53'0 0.0
2020-Mar-19 16:25S 36°44' E 174°53'0 0.0
2020-Mar-19 14:19S 36°44' E 174°53'0 0.0
2020-Mar-19 13:37S 36°44' E 174°53'0 0.0
2020-Mar-19 13:25S 36°44' E 174°53'0 0.0
2020-Mar-19 09:55S 36°44' E 174°53'0 0.0
2020-Mar-19 09:19S 36°44' E 174°53'0 0.0
2020-Mar-19 08:19S 36°44' E 174°53'0 0.0
2020-Mar-19 06:01S 36°44' E 174°53'0 0.1
2020-Mar-19 04:43S 36°44' E 174°53'0 0.2
2020-Mar-19 04:13S 36°44' E 174°52'6 6.5
2020-Mar-19 03:15S 36°50' E 174°50'6 0.9
2020-Mar-18 20:00S 36°48' E 174°42'31 5.1 250 / 51021.5 5.4 15.0
2020-Mar-18 14:00S 36°24' E 175°06'1111.4 270 / 111021.810.8 17.0 20.0
2020-Mar-18 13:00S 36°18' E 175°18'1111.4 290 / 111021.310.8 17.0
2020-Mar-18 12:00S 36°24' E 175°30'27 9.0 280 / 141021.710.8 17.4 20.9
2020-Mar-18 09:00S 36°36' E 176°00'1515.4 330 / 101021.510.8 17.0
2020-Mar-18 08:00S 36°48' E 176°12'1312.9 360 / 151020.710.8 17.4
2020-Mar-18 07:00S 37°00' E 176°06'2412.2 360 / 101020.1 5.4 17.0
2020-Mar-18 05:00S 37°24' E 176°12'1510.2 010 / 161019.010.8 18.1 20.8
2020-Mar-18 03:30S 37°39' E 176°11'0 0.0
2020-Mar-18 02:30S 37°39' E 176°11'0 0.0
2020-Mar-18 02:00S 37°39' E 176°11'5438.0
2020-Mar-18 02:00S 37°36' E 176°06'5 5.0 310 / 61019.110.8 23.0 21.0
2020-Mar-18 01:00S 37°39' E 176°11'5448.9
2020-Mar-18 01:00S 37°36' E 176°06'0 0.0 230 / 41019.410.8 20.0
2020-Mar-18 00:00S 37°36' E 176°06'5 1.4 200 / 51019.910.8 19.0
2020-Mar-17 20:30S 37°39' E 176°11'5 3.3
2020-Mar-17 19:00S 37°36' E 176°06'5 5.0 250 / 101019.8 5.4 11.3
2020-Mar-17 18:00S 37°39' E 176°11'5 4.9
2020-Mar-17 17:00S 37°36' E 176°06'510.2 250 / 81017.910.8 13.0 20.0
2020-Mar-17 16:30S 37°39' E 176°11'0 0.0
2020-Mar-17 13:00S 37°39' E 176°11'0 0.0
2020-Mar-17 10:30S 37°39' E 176°11'0 0.0
2020-Mar-17 09:30S 37°39' E 176°11'5 3.3
2020-Mar-17 08:00S 37°36' E 176°06'0 0.0 200 / 131014.2 15.0
2020-Mar-17 07:00S 37°36' E 176°06'510.1 170 / 251013.4 5.4 16.0
2020-Mar-17 06:30S 37°39' E 176°11'0 0.1
2020-Mar-17 06:00S 37°39' E 176°11'0 0.0
2020-Mar-17 03:30S 37°39' E 176°11'0 0.0
2020-Mar-17 01:00S 37°39' E 176°11'5623.4
2020-Mar-17 01:00S 37°36' E 176°06'5 2.5 160 / 151008.7 5.4 19.0
2020-Mar-16 23:00S 37°39' E 176°11'0 0.0
2020-Mar-16 21:30S 37°39' E 176°11'5 3.3
2020-Mar-16 20:00S 37°36' E 176°06'510.2 120 / 101007.5 5.4 17.3
2020-Mar-16 19:30S 37°39' E 176°11'5 9.9
2020-Mar-16 19:00S 37°36' E 176°06'0 0.0 140 / 151007.3 5.4 17.5
2020-Mar-16 18:00S 37°36' E 176°06'510.1 170 / 171007.6 5.4 17.8
2020-Mar-16 17:30S 37°39' E 176°11'5 3.3
2020-Mar-16 16:00S 37°36' E 176°06'5 5.0 130 / 201006.9 5.4 18.7
2020-Mar-16 15:00S 37°39' E 176°11'0 0.0
2020-Mar-16 14:30S 37°39' E 176°11'0 0.0
2020-Mar-16 12:00S 37°39' E 176°11'5 2.5
2020-Mar-16 10:00S 37°36' E 176°06'0 0.0 130 / 121007.2 5.4 19.0
2020-Mar-16 09:00S 37°36' E 176°06'5 2.5 140 / 61007.6 5.4 19.0
2020-Mar-16 07:00S 37°39' E 176°11'5717.8
2020-Mar-16 07:00S 37°36' E 176°06'510.1 250 / 51007.9 5.4 22.0
2020-Mar-16 06:30S 37°39' E 176°11'0 0.1
2020-Mar-16 06:00S 37°39' E 176°11'0 0.1
2020-Mar-16 05:30S 37°39' E 176°11'0 0.0
2020-Mar-16 03:30S 37°39' E 176°11'5 3.3
2020-Mar-16 02:00S 37°36' E 176°06'0 0.0 350 / 81009.4 5.4 22.0
2020-Mar-16 01:00S 37°36' E 176°06'0 0.0 350 / 61009.9 21.0
2020-Mar-16 00:00S 37°36' E 176°06'5 3.3 010 / 51011.0 5.4 22.0
2020-Mar-15 22:30S 37°39' E 176°11'0 0.1
2020-Mar-15 22:00S 37°39' E 176°11'5645.6
2020-Mar-15 22:00S 37°36' E 176°06'510.2 200 / 21012.210.8 16.0 20.0
2020-Mar-15 21:30S 37°39' E 176°11'0 0.1
2020-Mar-15 21:00S 37°39' E 176°11'0 0.0
2020-Mar-15 20:00S 37°39' E 176°11'0 0.0
2020-Mar-15 14:00S 37°39' E 176°11'0 0.0
2020-Mar-15 11:00S 37°39' E 176°11'0 0.0
2020-Mar-15 10:00S 37°39' E 176°11'0 0.0
2020-Mar-15 09:00S 37°39' E 176°11'5690.7
2020-Mar-15 09:00S 37°36' E 176°06'0 0.0 330 / 31014.3 5.4 19.0
2020-Mar-15 08:00S 37°36' E 176°06'0 0.0 300 / 51014.0 5.4 19.0
2020-Mar-15 07:00S 37°36' E 176°06'5 1.4 300 / 61013.410.8 20.0
2020-Mar-15 03:30S 37°39' E 176°11'5 9.8
2020-Mar-15 03:00S 37°36' E 176°06'510.1 020 / 81013.310.8 24.0 21.0
2020-Mar-15 02:30S 37°39' E 176°11'0 0.0
2020-Mar-15 01:00S 37°39' E 176°11'5997.6
2020-Mar-15 01:00S 37°36' E 176°06'0 0.0 030 / 111014.110.8 23.5
2020-Mar-15 00:00S 37°36' E 176°06'5 3.3 340 / 71014.410.8 23.0
2020-Mar-14 22:30S 37°39' E 176°11'0 0.0
2020-Mar-14 21:30S 37°39' E 176°11'0 0.0
2020-Mar-14 21:00S 37°39' E 176°11'0 0.0
2020-Mar-14 20:00S 37°39' E 176°11'  

Dump ship's entire track history